createdAt,value
2017-09-04T00:01:27.600Z,3.10
2017-09-04T00:04:28.944Z,3.10
2017-09-04T00:07:30.520Z,2.03
2017-09-04T00:10:31.814Z,3.20
2017-09-04T00:13:33.157Z,3.40
2017-09-04T00:16:34.448Z,2.80
2017-09-04T00:19:35.763Z,3.53
2017-09-04T00:22:37.104Z,3.37
2017-09-04T00:25:38.597Z,3.13
2017-09-04T00:28:39.896Z,2.87
2017-09-04T00:31:41.285Z,3.33
2017-09-04T00:34:42.600Z,4.70
2017-09-04T00:37:43.945Z,2.70
2017-09-04T00:40:45.269Z,2.43
2017-09-04T00:43:46.866Z,3.50
2017-09-04T00:46:48.172Z,3.30
2017-09-04T00:49:49.510Z,2.97
2017-09-04T00:52:50.860Z,3.80
2017-09-04T00:55:52.285Z,3.20
2017-09-04T00:58:54.025Z,4.20
2017-09-04T01:01:55.367Z,3.60
2017-09-04T01:04:56.709Z,3.10
2017-09-04T01:07:58.056Z,3.07
2017-09-04T01:10:59.441Z,3.40
2017-09-04T01:14:00.820Z,3.33
2017-09-04T01:17:02.188Z,3.50
2017-09-04T01:20:03.518Z,3.57
2017-09-04T01:23:04.869Z,3.10
2017-09-04T01:26:06.325Z,4.00
2017-09-04T01:29:07.642Z,3.73
2017-09-04T01:32:09.012Z,3.47
2017-09-04T01:35:10.322Z,3.70
2017-09-04T01:38:11.685Z,3.50
2017-09-04T01:41:13.007Z,3.30
2017-09-04T01:44:14.339Z,3.40
2017-09-04T01:47:15.621Z,4.00
2017-09-04T01:50:16.985Z,3.33
2017-09-04T01:53:18.436Z,3.83
2017-09-04T01:56:19.756Z,3.73
2017-09-04T01:59:21.177Z,3.83
2017-09-04T02:02:22.465Z,3.70
2017-09-04T02:05:23.789Z,3.30
2017-09-04T02:08:25.088Z,3.97
2017-09-04T02:11:26.432Z,3.70
2017-09-04T02:14:27.736Z,2.80
2017-09-04T02:17:29.073Z,4.90
2017-09-04T02:20:30.391Z,3.87
2017-09-04T02:23:31.706Z,3.80
2017-09-04T02:26:33.036Z,4.07
2017-09-04T02:29:34.364Z,3.60
2017-09-04T02:32:35.716Z,3.60
2017-09-04T02:35:37.018Z,3.30
2017-09-04T02:38:38.364Z,3.70
2017-09-04T02:41:39.685Z,3.43
2017-09-04T02:44:40.998Z,3.43
2017-09-04T02:47:42.434Z,3.40
2017-09-04T02:50:43.741Z,3.90
2017-09-04T02:53:45.073Z,4.10
2017-09-04T02:56:46.404Z,3.63
2017-09-04T02:59:47.768Z,3.77
2017-09-04T03:02:49.079Z,4.00
2017-09-04T03:05:50.397Z,4.07
2017-09-04T03:08:51.693Z,4.17
2017-09-04T03:11:53.042Z,3.70
2017-09-04T03:14:54.341Z,3.90
2017-09-04T03:17:55.696Z,4.50
2017-09-04T03:20:57.277Z,4.60
2017-09-04T03:23:58.641Z,4.87
2017-09-04T03:27:00.029Z,3.73
2017-09-04T03:30:01.414Z,4.20
2017-09-04T03:33:02.788Z,4.50
2017-09-04T03:36:04.121Z,3.83
2017-09-04T03:39:05.490Z,4.50
2017-09-04T03:42:07.013Z,4.43
2017-09-04T03:45:08.381Z,3.97
2017-09-04T03:48:09.769Z,4.07
2017-09-04T03:51:11.148Z,3.73
2017-09-04T03:54:12.568Z,4.33
2017-09-04T03:57:13.933Z,4.23
2017-09-04T04:00:15.301Z,3.43
2017-09-04T04:03:16.841Z,3.80
2017-09-04T04:06:18.189Z,4.77
2017-09-04T04:09:19.581Z,4.27
2017-09-04T04:12:20.944Z,5.20
2017-09-04T04:15:22.365Z,4.13
2017-09-04T04:18:23.684Z,4.80
2017-09-04T04:21:25.052Z,4.63
2017-09-04T04:24:26.511Z,4.57
2017-09-04T04:27:27.829Z,4.60
2017-09-04T04:30:29.214Z,4.37
2017-09-04T04:33:30.529Z,4.47
2017-09-04T04:36:31.848Z,4.70
2017-09-04T04:39:33.145Z,4.40
2017-09-04T04:42:34.461Z,4.43
2017-09-04T04:45:35.924Z,4.33
2017-09-04T04:48:37.237Z,4.67
2017-09-04T04:51:38.581Z,4.03
2017-09-04T04:54:39.893Z,4.97
2017-09-04T04:57:41.214Z,4.60
2017-09-04T05:00:42.524Z,4.33
2017-09-04T05:03:43.833Z,3.77
2017-09-04T05:06:45.608Z,4.37
2017-09-04T05:09:46.891Z,4.67
2017-09-04T05:12:48.241Z,5.30
2017-09-04T05:15:49.544Z,5.60
2017-09-04T05:18:50.873Z,4.70
2017-09-04T05:21:52.186Z,5.43
2017-09-04T05:24:53.569Z,5.63
2017-09-04T05:27:54.889Z,4.33
2017-09-04T05:30:56.217Z,5.00
2017-09-04T05:33:57.508Z,5.87
2017-09-04T05:36:58.849Z,5.10
2017-09-04T05:40:00.156Z,5.03
2017-09-04T05:43:01.482Z,5.53
2017-09-04T05:46:02.921Z,5.47
2017-09-04T05:49:04.260Z,6.50
2017-09-04T05:52:05.593Z,6.00
2017-09-04T05:55:06.869Z,5.80
2017-09-04T05:58:08.209Z,5.50
2017-09-04T06:01:09.521Z,6.20
2017-09-04T06:04:10.877Z,6.23
2017-09-04T06:07:12.200Z,5.70
2017-09-04T06:10:13.529Z,5.93
2017-09-04T06:13:14.830Z,6.97
2017-09-04T06:16:16.243Z,5.70
2017-09-04T06:19:17.958Z,5.80
2017-09-04T06:22:19.268Z,7.07
2017-09-04T06:25:20.613Z,6.17
2017-09-04T06:28:21.910Z,6.07
2017-09-04T06:31:23.242Z,6.70
2017-09-04T06:34:24.549Z,6.73
2017-09-04T06:37:25.889Z,7.60
2017-09-04T06:40:27.260Z,6.70
2017-09-04T06:43:28.580Z,7.10
2017-09-04T06:46:29.912Z,7.93
2017-09-04T06:49:31.240Z,9.53
2017-09-04T06:52:32.601Z,9.27
2017-09-04T06:55:34.045Z,8.80
2017-09-04T06:58:35.360Z,8.80
2017-09-04T07:01:36.676Z,8.80
2017-09-04T07:04:37.962Z,8.87
2017-09-04T07:07:39.337Z,9.03
2017-09-04T07:10:40.630Z,8.33
2017-09-04T07:13:42.020Z,8.40
2017-09-04T07:16:43.364Z,9.27
2017-09-04T07:19:44.690Z,8.70
2017-09-04T07:22:46.146Z,8.63
2017-09-04T07:25:47.452Z,8.10
2017-09-04T07:28:48.749Z,8.33
2017-09-04T07:31:50.053Z,7.60
2017-09-04T07:34:51.377Z,8.60
2017-09-04T07:37:52.688Z,8.50
2017-09-04T07:40:54.024Z,7.80
2017-09-04T07:43:55.337Z,6.83
2017-09-04T07:46:56.676Z,7.00
2017-09-04T07:49:58.016Z,7.47
2017-09-04T07:52:59.345Z,7.47
2017-09-04T07:56:00.641Z,5.70
2017-09-04T07:59:01.961Z,7.63
2017-09-04T08:02:03.249Z,7.90
2017-09-04T08:05:04.601Z,7.47
2017-09-04T08:08:05.980Z,6.70
2017-09-04T08:11:07.333Z,6.57
2017-09-04T08:14:08.704Z,7.90
2017-09-04T08:17:10.048Z,7.70
2017-09-04T08:20:11.357Z,7.57
2017-09-04T08:23:12.720Z,7.50
2017-09-04T08:26:14.014Z,7.90
2017-09-04T08:29:15.341Z,7.10
2017-09-04T08:32:17.054Z,6.57
2017-09-04T08:35:18.337Z,8.03
2017-09-04T08:38:19.703Z,6.67
2017-09-04T08:41:21.056Z,7.60
2017-09-04T08:44:22.428Z,7.43
2017-09-04T08:47:23.710Z,6.60
2017-09-04T08:50:25.038Z,7.03
2017-09-04T08:53:26.388Z,6.70
2017-09-04T08:56:27.969Z,6.97
2017-09-04T08:59:29.277Z,5.97
2017-09-04T09:02:30.672Z,5.27
2017-09-04T09:05:32.132Z,5.07
2017-09-04T09:08:33.442Z,3.63
2017-09-04T09:11:34.749Z,4.70
2017-09-04T09:14:36.090Z,5.03
2017-09-04T09:17:37.429Z,3.63
2017-09-04T09:20:38.737Z,5.30
2017-09-04T09:23:40.148Z,4.37
2017-09-04T09:26:41.604Z,5.03
2017-09-04T09:29:42.924Z,4.53
2017-09-04T09:32:44.265Z,4.77
2017-09-04T09:35:45.557Z,3.70
2017-09-04T09:38:46.908Z,4.47
2017-09-04T09:41:48.213Z,4.20
2017-09-04T09:44:49.552Z,4.70
2017-09-04T09:47:50.889Z,4.00
2017-09-04T09:50:52.276Z,4.10
2017-09-04T09:53:53.625Z,3.50
2017-09-04T09:56:55.094Z,3.87
2017-09-04T09:59:56.424Z,3.80
2017-09-04T10:02:57.773Z,3.97
2017-09-04T10:05:59.116Z,3.73
2017-09-04T10:09:00.453Z,2.70
2017-09-04T10:12:01.797Z,4.63
2017-09-04T10:15:03.142Z,3.37
2017-09-04T10:18:04.590Z,3.97
2017-09-04T10:21:05.907Z,3.40
2017-09-04T10:24:07.336Z,3.20
2017-09-04T10:27:08.676Z,4.20
2017-09-04T10:30:10.070Z,3.80
2017-09-04T10:33:11.393Z,3.20
2017-09-04T10:36:12.736Z,3.40
2017-09-04T10:39:14.077Z,3.20
2017-09-04T10:42:15.440Z,3.30
2017-09-04T10:45:16.769Z,3.33
2017-09-04T10:48:18.153Z,4.10
2017-09-04T10:51:19.488Z,4.30
2017-09-04T10:54:20.864Z,3.80
2017-09-04T10:57:22.251Z,3.60
2017-09-04T11:00:23.633Z,3.73
2017-09-04T11:03:24.929Z,3.53
2017-09-04T11:06:26.265Z,3.67
2017-09-04T11:09:27.571Z,3.40
2017-09-04T11:12:28.936Z,3.27
2017-09-04T11:15:30.286Z,3.50
2017-09-04T11:18:31.769Z,3.60
2017-09-04T11:21:33.077Z,4.10
2017-09-04T11:24:34.518Z,3.37
2017-09-04T11:27:35.837Z,4.23
2017-09-04T11:30:37.293Z,3.83
2017-09-04T11:33:38.609Z,4.10
2017-09-04T11:36:39.969Z,4.40
2017-09-04T11:39:41.308Z,3.80
2017-09-04T11:42:42.621Z,3.73
2017-09-04T11:45:43.909Z,4.70
2017-09-04T11:48:45.264Z,5.50
2017-09-04T11:51:46.621Z,4.07
2017-09-04T11:54:47.985Z,3.53
2017-09-04T11:57:49.262Z,4.87
2017-09-04T12:00:50.658Z,3.70
2017-09-04T12:03:51.981Z,4.00
2017-09-04T12:06:53.281Z,3.90
2017-09-04T12:09:54.741Z,3.83
2017-09-04T12:12:56.092Z,4.13
2017-09-04T12:15:57.433Z,4.17
2017-09-04T12:18:58.760Z,3.67
2017-09-04T12:22:00.081Z,4.43
2017-09-04T12:25:01.448Z,3.80
2017-09-04T12:28:02.829Z,4.20
2017-09-04T12:31:04.173Z,3.40
2017-09-04T12:34:05.557Z,3.97
2017-09-04T12:37:06.841Z,3.60
2017-09-04T12:40:08.177Z,3.53
2017-09-04T12:43:09.680Z,3.70
2017-09-04T12:46:11.017Z,3.90
2017-09-04T12:49:12.389Z,3.93
2017-09-04T12:52:13.736Z,3.27
2017-09-04T12:55:15.073Z,3.20
2017-09-04T12:58:16.370Z,3.87
2017-09-04T13:01:17.714Z,3.10
2017-09-04T13:04:19.065Z,2.50
2017-09-04T13:07:20.457Z,3.67
2017-09-04T13:10:27.917Z,4.00
2017-09-04T13:13:29.290Z,4.97
2017-09-04T13:16:36.626Z,2.50
2017-09-04T13:19:44.014Z,3.43
2017-09-04T13:26:27.853Z,3.40
2017-09-04T13:29:35.248Z,3.20
2017-09-04T13:36:22.906Z,3.13
2017-09-04T13:43:06.560Z,3.20
2017-09-04T13:46:13.853Z,3.47
2017-09-04T13:49:15.225Z,3.77
2017-09-04T13:52:22.757Z,3.90
2017-09-04T13:58:58.149Z,3.47
2017-09-04T14:02:05.501Z,3.20
2017-09-04T14:08:47.065Z,3.07
2017-09-04T14:11:54.428Z,3.50
2017-09-04T14:14:58.725Z,3.33
2017-09-04T14:18:06.057Z,2.60
2017-09-04T14:21:07.452Z,3.50
2017-09-04T14:24:08.773Z,2.97
2017-09-04T14:27:10.162Z,3.67
2017-09-04T14:30:11.508Z,3.60
2017-09-04T14:33:12.864Z,3.50
2017-09-04T14:36:14.508Z,3.20
2017-09-04T14:39:15.858Z,2.80
2017-09-04T14:42:17.236Z,3.80
2017-09-04T14:45:18.579Z,3.30
2017-09-04T14:48:19.933Z,3.40
2017-09-04T14:51:21.249Z,2.53
2017-09-04T14:54:22.644Z,4.10
2017-09-04T14:57:24.003Z,3.60
2017-09-04T15:00:25.399Z,3.70
2017-09-04T15:03:26.725Z,3.80
2017-09-04T15:06:28.096Z,4.33
2017-09-04T15:09:29.413Z,3.53
2017-09-04T15:12:30.754Z,3.37
2017-09-04T15:15:32.080Z,4.10
2017-09-04T15:18:33.452Z,3.80
2017-09-04T15:21:34.770Z,3.90
2017-09-04T15:24:36.101Z,3.70
2017-09-04T15:27:37.489Z,4.40
2017-09-04T15:30:38.827Z,4.47
2017-09-04T15:33:40.311Z,3.40
2017-09-04T15:36:41.649Z,3.27
2017-09-04T15:39:43.036Z,3.00
2017-09-04T15:42:44.397Z,3.40
2017-09-04T15:45:45.788Z,3.83
2017-09-04T15:48:47.118Z,4.50
2017-09-04T15:51:48.492Z,3.57
2017-09-04T15:54:49.825Z,3.53
2017-09-04T15:57:51.209Z,3.83
2017-09-04T16:00:52.556Z,4.67
2017-09-04T16:03:53.897Z,4.20
2017-09-04T16:06:55.440Z,4.40
2017-09-04T16:09:56.787Z,3.87
2017-09-04T16:13:08.517Z,3.80
2017-09-04T16:16:09.828Z,3.40
2017-09-04T16:19:11.312Z,4.20
2017-09-04T16:25:53.714Z,4.43
2017-09-04T16:36:07.128Z,4.23
2017-09-04T16:39:23.380Z,4.40
2017-09-04T16:42:34.676Z,4.40
2017-09-04T16:45:36.015Z,4.53
2017-09-04T16:48:43.269Z,3.97
2017-09-04T16:51:55.386Z,4.57
2017-09-04T16:54:57.513Z,4.20
2017-09-04T16:57:58.873Z,3.83
2017-09-04T17:01:00.194Z,4.10
2017-09-04T17:04:01.529Z,3.90
2017-09-04T17:07:02.921Z,4.60
2017-09-04T17:10:04.229Z,4.83
2017-09-04T17:13:05.737Z,3.43
2017-09-04T17:16:09.113Z,4.07
2017-09-04T17:19:11.365Z,4.00
2017-09-04T17:22:12.733Z,3.90
2017-09-04T17:28:43.450Z,3.80
2017-09-04T17:31:44.812Z,3.97
2017-09-04T17:34:46.314Z,3.87
2017-09-04T17:37:47.645Z,3.83
2017-09-04T17:40:49.022Z,4.63
2017-09-04T17:43:50.369Z,4.07
2017-09-04T17:46:51.741Z,4.03
2017-09-04T17:49:53.121Z,4.13
2017-09-04T17:52:54.504Z,3.40
2017-09-04T17:55:55.857Z,4.03
2017-09-04T17:58:57.270Z,3.70
2017-09-04T18:01:58.772Z,3.57
2017-09-04T18:05:00.121Z,3.30
2017-09-04T18:08:01.816Z,3.90
2017-09-04T18:11:03.126Z,4.23
2017-09-04T18:14:04.493Z,3.70
2017-09-04T18:17:05.862Z,4.30
2017-09-04T18:20:07.255Z,3.37
2017-09-04T18:23:08.617Z,3.70
2017-09-04T18:26:10.029Z,3.33
2017-09-04T18:29:11.753Z,5.07
2017-09-04T18:32:13.169Z,5.93
2017-09-04T18:35:14.502Z,5.37
2017-09-04T18:38:15.857Z,3.83
2017-09-04T18:41:17.255Z,3.77
2017-09-04T18:44:18.602Z,3.87
2017-09-04T18:47:20.044Z,4.33
2017-09-04T18:50:21.378Z,4.57
2017-09-04T18:53:22.750Z,4.50
2017-09-04T18:56:24.230Z,3.80
2017-09-04T18:59:25.574Z,4.90
2017-09-04T19:02:27.187Z,7.17
2017-09-04T19:05:28.589Z,7.63
2017-09-04T19:08:29.964Z,5.10
2017-09-04T19:11:31.491Z,4.83
2017-09-04T19:14:32.882Z,4.30
2017-09-04T19:17:34.255Z,4.60
2017-09-04T19:20:35.680Z,4.57
2017-09-04T19:23:37.052Z,4.17
2017-09-04T19:26:38.534Z,4.63
2017-09-04T19:29:40.100Z,4.53
2017-09-04T19:32:41.455Z,4.83
2017-09-04T19:35:42.872Z,5.80
2017-09-04T19:38:44.249Z,4.83
2017-09-04T19:41:45.613Z,4.50
2017-09-04T19:44:46.986Z,4.53
2017-09-04T19:47:48.389Z,4.83
2017-09-04T19:50:49.892Z,5.47
2017-09-04T19:53:51.681Z,4.67
2017-09-04T19:56:53.133Z,4.20
2017-09-04T19:59:54.433Z,4.00
2017-09-04T20:02:55.785Z,4.40
2017-09-04T20:05:57.129Z,4.07
2017-09-04T20:08:58.457Z,4.20
2017-09-04T20:11:59.804Z,4.73
2017-09-04T20:15:01.181Z,3.97
2017-09-04T20:18:02.505Z,4.67
2017-09-04T20:21:03.901Z,4.17
2017-09-04T20:24:05.332Z,4.53
2017-09-04T20:27:06.779Z,4.30
2017-09-04T20:30:08.217Z,4.17
2017-09-04T20:33:09.517Z,4.67
2017-09-04T20:36:10.864Z,4.80
2017-09-04T20:39:12.200Z,4.57
2017-09-04T20:42:13.528Z,4.93
2017-09-04T20:45:14.870Z,5.00
2017-09-04T20:48:16.252Z,3.53
2017-09-04T20:51:17.597Z,4.87
2017-09-04T20:54:18.938Z,3.53
2017-09-04T20:57:20.244Z,4.07
2017-09-04T21:00:21.605Z,3.53
2017-09-04T21:03:22.974Z,4.00
2017-09-04T21:06:24.328Z,4.30
2017-09-04T21:09:25.700Z,4.90
2017-09-04T21:12:27.054Z,4.67
2017-09-04T21:15:28.472Z,4.60
2017-09-04T21:18:29.789Z,3.70
2017-09-04T21:21:31.181Z,4.17
2017-09-04T21:24:32.501Z,4.30
2017-09-04T21:27:33.912Z,5.03
2017-09-04T21:30:35.228Z,3.87
2017-09-04T21:33:36.586Z,4.10
2017-09-04T21:36:37.893Z,4.50
2017-09-04T21:39:39.243Z,4.27
2017-09-04T21:42:40.612Z,4.17
2017-09-04T21:45:41.989Z,4.37
2017-09-04T21:48:43.293Z,4.23
2017-09-04T21:51:44.640Z,4.23
2017-09-04T21:54:46.070Z,4.60
2017-09-04T21:57:47.383Z,3.70
2017-09-04T22:00:49.691Z,4.27
2017-09-04T22:03:51.001Z,4.10
2017-09-04T22:06:52.357Z,3.93
2017-09-04T22:09:53.693Z,3.33
2017-09-04T22:12:55.069Z,4.03
2017-09-04T22:15:56.725Z,5.33
2017-09-04T22:18:58.057Z,4.00
2017-09-04T22:21:59.426Z,4.50
2017-09-04T22:25:00.745Z,3.33
2017-09-04T22:28:02.136Z,4.20
2017-09-04T22:31:03.469Z,3.93
2017-09-04T22:34:04.864Z,4.30
2017-09-04T22:37:06.220Z,3.70
2017-09-04T22:40:07.568Z,4.10
2017-09-04T22:43:08.888Z,4.13
2017-09-04T22:46:10.285Z,4.10
2017-09-04T22:49:11.800Z,3.90
2017-09-04T22:52:13.156Z,4.93
2017-09-04T22:55:14.632Z,3.93
2017-09-04T22:58:16.923Z,3.40
2017-09-04T23:01:18.256Z,4.17
2017-09-04T23:04:19.573Z,3.90
2017-09-04T23:07:20.929Z,3.53
2017-09-04T23:10:22.276Z,4.40
2017-09-04T23:13:23.625Z,5.67
2017-09-04T23:16:25.020Z,4.40
2017-09-04T23:19:26.325Z,3.90
2017-09-04T23:22:27.668Z,4.77
2017-09-04T23:25:28.969Z,4.63
2017-09-04T23:28:30.357Z,5.30
2017-09-04T23:31:31.701Z,5.20
2017-09-04T23:34:33.065Z,4.57
2017-09-04T23:37:34.369Z,5.70
2017-09-04T23:40:35.725Z,5.80
2017-09-04T23:43:37.229Z,5.63
2017-09-04T23:46:38.513Z,5.40
2017-09-04T23:49:39.889Z,5.33
2017-09-04T23:52:41.369Z,6.30
2017-09-04T23:55:42.705Z,6.40
2017-09-04T23:58:44.016Z,5.47
